Time;durP1;ratioP1;P1;durP2;ratioP2;P2;SDS_P1;SDS_P2;PMS_P1;PMS_P2;Temp;Humidity;BMP_temperature;BMP_pressure;BME280_temperature;BME280_humidity;BME280_pressure;Samples;Min_cycle;Max_cycle;Signal;HPM_P1;HPM_P2
2023/02/12 00:01:32;;;;;;;16.13;12.07;;;;;;;2.66;100.00;97696.13;5042007;28;24814;-75
2023/02/12 00:03:58;;;;;;;15.38;11.95;;;;;;;2.69;100.00;97694.41;5047171;28;24790;-75
2023/02/12 00:06:26;;;;;;;13.80;10.65;;;;;;;2.64;100.00;97690.16;5050645;28;24458;-75
2023/02/12 00:08:55;;;;;;;12.57;9.10;;;;;;;2.48;100.00;97685.03;5044953;28;24428;-75
2023/02/12 00:11:24;;;;;;;11.45;9.98;;;;;;;2.31;100.00;97682.50;5057033;28;24529;-75
2023/02/12 00:13:51;;;;;;;19.23;13.25;;;;;;;2.31;100.00;97688.47;5045239;28;24439;-74
2023/02/12 00:16:19;;;;;;;18.10;12.50;;;;;;;2.33;100.00;97696.13;5053166;28;24446;-74
2023/02/12 00:18:46;;;;;;;16.13;12.00;;;;;;;2.36;100.00;97685.91;5046370;28;24462;-75
2023/02/12 00:21:13;;;;;;;15.52;11.45;;;;;;;2.45;100.00;97690.16;5046785;28;24443;-75
2023/02/12 00:23:41;;;;;;;14.73;10.38;;;;;;;2.51;100.00;97692.72;5043121;28;24462;-75
2023/02/12 00:26:09;;;;;;;12.07;10.33;;;;;;;2.55;100.00;97689.31;5049002;28;24434;-74
2023/02/12 00:28:36;;;;;;;12.80;9.93;;;;;;;2.58;100.00;97682.47;5051470;28;24435;-76
2023/02/12 00:31:07;;;;;;;11.25;9.70;;;;;;;2.57;100.00;97685.06;5039799;28;24459;-75
2023/02/12 00:33:33;;;;;;;14.83;10.93;;;;;;;2.51;100.00;97687.59;5039605;28;24432;-74
2023/02/12 00:36:00;;;;;;;15.07;11.05;;;;;;;2.46;100.00;97694.44;5040503;28;24954;-75
2023/02/12 00:38:26;;;;;;;20.17;10.40;;;;;;;2.38;100.00;97685.06;5042840;28;24443;-75
2023/02/12 00:40:54;;;;;;;18.73;11.38;;;;;;;2.27;100.00;97689.31;5038282;28;24439;-75
2023/02/12 00:43:21;;;;;;;16.98;11.85;;;;;;;2.31;100.00;97688.47;5040202;28;24515;-75
2023/02/12 00:45:47;;;;;;;13.20;10.18;;;;;;;2.45;100.00;97691.03;5046647;28;24446;-74
2023/02/12 00:48:15;;;;;;;12.80;9.23;;;;;;;2.54;100.00;97698.69;5050108;28;24446;-76
2023/02/12 00:50:44;;;;;;;11.77;7.13;;;;;;;2.76;100.00;97696.13;5043424;28;24455;-75
2023/02/12 00:53:11;;;;;;;8.38;7.07;;;;;;;2.56;100.00;97703.78;5041156;28;24436;-75
2023/02/12 00:55:37;;;;;;;14.48;8.32;;;;;;;2.39;100.00;97701.25;5030812;28;24976;-75
2023/02/12 00:58:06;;;;;;;14.95;10.18;;;;;;;2.27;100.00;97714.88;5049922;28;24450;-76
2023/02/12 01:00:32;;;;;;;12.65;9.43;;;;;;;2.33;100.00;97709.75;5044882;28;24435;-75
2023/02/12 01:02:58;;;;;;;13.25;8.55;;;;;;;2.38;100.00;97717.44;5044675;28;24495;-74
2023/02/12 01:05:25;;;;;;;11.63;9.05;;;;;;;2.31;100.00;97721.69;5055672;28;25015;-75
2023/02/12 01:07:54;;;;;;;14.70;10.02;;;;;;;2.33;100.00;97717.44;5051983;28;24446;-76
2023/02/12 01:10:20;;;;;;;13.43;10.02;;;;;;;2.26;100.00;97715.72;5047610;28;24820;-75
2023/02/12 01:12:47;;;;;;;14.55;9.60;;;;;;;2.17;100.00;97715.72;5044548;28;24445;-75
2023/02/12 01:15:17;;;;;;;15.65;9.20;;;;;;;2.23;100.00;97710.63;5046953;28;24797;-75
2023/02/12 01:17:43;;;;;;;14.63;9.73;;;;;;;2.35;100.00;97709.78;5055695;28;24446;-77
2023/02/12 01:20:16;;;;;;;12.63;9.20;;;;;;;2.36;100.00;97708.91;5048839;28;24967;-75
2023/02/12 01:22:42;;;;;;;15.77;9.40;;;;;;;2.39;100.00;97717.44;5050860;28;24991;-75
2023/02/12 01:25:09;;;;;;;10.93;8.38;;;;;;;2.47;100.00;97714.88;5044146;28;24442;-76
2023/02/12 01:27:36;;;;;;;10.93;8.75;;;;;;;2.48;100.00;97719.13;5051302;28;24829;-76
2023/02/12 01:30:03;;;;;;;15.10;9.15;;;;;;;2.42;100.00;97717.44;5048436;28;24460;-75
2023/02/12 01:32:30;;;;;;;12.77;9.03;;;;;;;2.43;100.00;97714.03;5049091;28;24529;-75
2023/02/12 01:34:57;;;;;;;10.80;8.07;;;;;;;2.47;100.00;97707.22;5040110;28;24439;-75
2023/02/12 01:37:23;;;;;;;10.20;9.07;;;;;;;2.26;100.00;97720.81;5038161;28;24443;-75
2023/02/12 01:39:50;;;;;;;11.38;9.27;;;;;;;2.18;100.00;97722.53;5046940;28;24427;-75
2023/02/12 01:42:17;;;;;;;11.23;9.48;;;;;;;2.29;100.00;97725.09;5047237;28;24432;-76
2023/02/12 01:44:46;;;;;;;11.88;9.40;;;;;;;2.32;100.00;97720.00;5040989;28;24522;-76
2023/02/12 01:47:17;;;;;;;10.95;9.48;;;;;;;2.22;100.00;97715.72;5036456;28;24450;-75
2023/02/12 01:49:48;;;;;;;14.57;9.55;;;;;;;2.13;100.00;97712.31;5050296;28;24436;-76
2023/02/12 01:52:19;;;;;;;14.43;9.75;;;;;;;2.05;100.00;97714.00;5049662;28;24782;-76
2023/02/12 01:54:45;;;;;;;10.68;9.38;;;;;;;2.14;100.00;97708.03;5051940;28;24435;-77
2023/02/12 01:57:14;;;;;;;9.65;8.65;;;;;;;2.20;100.00;97708.06;5039541;28;25004;-75
2023/02/12 01:59:43;;;;;;;10.25;8.57;;;;;;;2.24;100.00;97706.34;5046830;28;24442;-75
2023/02/12 02:02:09;;;;;;;13.10;8.63;;;;;;;2.28;100.00;97705.50;5039434;28;24432;-75
2023/02/12 02:04:41;;;;;;;11.63;9.85;;;;;;;2.23;100.00;97705.50;5046294;28;24999;-75
2023/02/12 02:07:10;;;;;;;13.18;9.88;;;;;;;2.24;100.00;97707.22;5041707;28;24785;-74
2023/02/12 02:09:39;;;;;;;12.70;8.38;;;;;;;2.31;100.00;97696.13;5043531;28;25016;-75
2023/02/12 02:14:54;;;;;;;12.13;8.40;;;;;;;2.46;100.00;97709.78;5044520;28;24509;-76
2023/02/12 02:17:34;;;;;;;18.07;7.90;;;;;;;2.42;100.00;97696.16;5037664;28;24432;-75
2023/02/12 02:20:31;;;;;;;10.40;8.23;;;;;;;2.42;100.00;97696.16;5047730;28;24797;-75
2023/02/12 02:23:16;;;;;;;12.48;8.55;;;;;;;2.43;100.00;97698.69;5003748;28;24434;-76
2023/02/12 02:26:07;;;;;;;13.35;8.48;;;;;;;2.46;100.00;97694.44;5057146;28;24439;-75
2023/02/12 02:28:54;;;;;;;11.35;8.40;;;;;;;2.49;100.00;97699.56;5044430;28;24848;-76
2023/02/12 02:31:26;;;;;;;9.65;8.23;;;;;;;2.54;100.00;97695.28;5041154;28;24448;-75
2023/02/12 02:33:59;;;;;;;9.00;7.82;;;;;;;2.56;100.00;97694.44;5047787;28;24477;-74
2023/02/12 02:36:34;;;;;;;10.27;8.05;;;;;;;2.52;100.00;97685.06;5051782;28;24454;-75
2023/02/12 02:39:07;;;;;;;9.50;8.15;;;;;;;2.55;100.00;97684.19;5042939;28;24446;-75
2023/02/12 02:41:36;;;;;;;9.25;7.93;;;;;;;2.54;100.00;97677.38;5047925;28;24427;-75
2023/02/12 02:44:09;;;;;;;12.32;8.23;;;;;;;2.52;100.00;97682.50;5044423;28;24431;-74
2023/02/12 02:46:44;;;;;;;10.25;8.40;;;;;;;2.53;100.00;97685.91;5050725;28;24462;-74
2023/02/12 02:49:16;;;;;;;14.03;8.23;;;;;;;2.51;100.00;97687.59;5050103;28;24440;-74
2023/02/12 02:51:47;;;;;;;10.25;8.02;;;;;;;2.48;100.00;97685.88;5042998;28;25007;-75
2023/02/12 02:54:18;;;;;;;11.30;7.80;;;;;;;2.52;100.00;97679.94;5049903;28;24447;-75
2023/02/12 02:56:47;;;;;;;10.77;8.07;;;;;;;2.51;100.00;97677.38;5052025;28;24451;-74
2023/02/12 02:59:20;;;;;;;11.52;8.00;;;;;;;2.50;100.00;97676.53;5051158;28;24984;-76
2023/02/12 03:01:55;;;;;;;9.77;7.93;;;;;;;2.54;100.00;97674.81;5045479;28;24454;-75
2023/02/12 03:04:26;;;;;;;11.65;8.85;;;;;;;2.47;100.00;97681.63;5050331;28;24975;-76
2023/02/12 03:06:58;;;;;;;8.32;7.50;;;;;;;2.50;100.00;97680.78;5051277;28;24447;-75
2023/02/12 03:09:31;;;;;;;12.95;8.43;;;;;;;2.52;100.00;97679.94;5049549;28;24442;-75
2023/02/12 03:12:03;;;;;;;9.73;8.20;;;;;;;2.43;100.00;97677.38;5041727;28;24456;-75
2023/02/12 03:14:34;;;;;;;12.07;8.68;;;;;;;2.42;100.00;97680.81;5048584;28;24994;-76
2023/02/12 03:17:07;;;;;;;9.60;8.05;;;;;;;2.48;100.00;97675.66;5049726;28;24432;-75
2023/02/12 03:19:37;;;;;;;13.93;8.40;;;;;;;2.49;100.00;97677.38;5046380;28;24440;-75
2023/02/12 03:22:08;;;;;;;11.00;8.43;;;;;;;2.54;100.00;97675.66;5051557;28;24435;-76
2023/02/12 03:24:38;;;;;;;10.18;7.78;;;;;;;2.62;100.00;97668.00;5055252;28;24805;-75
2023/02/12 03:27:10;;;;;;;9.35;7.80;;;;;;;2.53;100.00;97675.69;5050926;28;24439;-76
2023/02/12 03:29:37;;;;;;;11.15;8.15;;;;;;;2.66;100.00;97674.81;5052254;28;25011;-74
2023/02/12 03:32:23;;;;;;;10.63;7.68;;;;;;;2.61;100.00;97685.03;5041637;28;24450;-75
2023/02/12 03:34:54;;;;;;;8.25;6.88;;;;;;;2.48;100.00;97677.38;5046970;28;24434;-75
2023/02/12 03:37:29;;;;;;;10.20;7.82;;;;;;;2.41;100.00;97682.50;5049599;28;25007;-75
2023/02/12 03:40:00;;;;;;;9.98;7.95;;;;;;;2.49;100.00;97681.66;5044290;28;24435;-74
2023/02/12 03:42:37;;;;;;;11.00;7.83;;;;;;;2.43;100.00;97683.34;5045810;28;24441;-75
2023/02/12 03:45:13;;;;;;;8.60;7.40;;;;;;;2.34;100.00;97685.91;5045354;28;25004;-75
2023/02/12 03:47:46;;;;;;;9.18;7.65;;;;;;;2.30;100.00;97689.31;5049279;28;24980;-75
2023/02/12 03:50:16;;;;;;;8.95;7.65;;;;;;;2.28;100.00;97685.91;5047375;28;24985;-75
2023/02/12 03:52:43;;;;;;;10.75;8.60;;;;;;;2.31;100.00;97687.63;5047545;28;24439;-75
2023/02/12 03:55:11;;;;;;;8.73;7.82;;;;;;;2.32;100.00;97689.31;5046733;28;24428;-75
2023/02/12 03:57:41;;;;;;;11.25;8.38;;;;;;;2.32;100.00;97691.88;5043878;28;24443;-75
2023/02/12 04:00:11;;;;;;;9.25;8.20;;;;;;;2.29;100.00;97689.31;5042375;28;24989;-75
2023/02/12 04:02:37;;;;;;;10.20;8.25;;;;;;;2.29;100.00;97681.63;5045679;28;24447;-75
2023/02/12 04:05:07;;;;;;;9.32;8.20;;;;;;;2.32;100.00;97685.03;5050888;28;24439;-76
2023/02/12 04:07:36;;;;;;;9.57;8.38;;;;;;;2.37;100.00;97687.59;5047901;28;24447;-75
2023/02/12 04:10:03;;;;;;;10.40;8.35;;;;;;;2.40;100.00;97687.59;5047906;28;24436;-75
2023/02/12 04:12:40;;;;;;;10.70;8.82;;;;;;;2.41;100.00;97691.84;5048617;28;25242;-75
2023/02/12 04:15:31;;;;;;;11.13;8.32;;;;;;;2.40;100.00;97692.72;5049802;28;24516;-75
2023/02/12 04:18:03;;;;;;;12.15;9.07;;;;;;;2.33;100.00;97691.84;5041310;28;25016;-75
2023/02/12 04:20:44;;;;;;;9.98;8.45;;;;;;;2.33;100.00;97689.31;5046503;28;24435;-75
2023/02/12 04:23:21;;;;;;;9.30;8.27;;;;;;;2.35;100.00;97689.31;5044272;28;24450;-75
2023/02/12 04:25:56;;;;;;;13.20;8.50;;;;;;;2.25;100.00;97701.22;5048186;28;24442;-76
2023/02/12 04:28:35;;;;;;;11.30;8.90;;;;;;;2.19;100.00;97693.56;5043668;28;24497;-74
2023/02/12 04:31:05;;;;;;;9.57;8.07;;;;;;;2.17;100.00;97706.34;5040103;28;24455;-75
2023/02/12 04:33:37;;;;;;;9.77;6.97;;;;;;;2.11;100.00;97703.78;5042665;28;24442;-75
2023/02/12 04:36:12;;;;;;;9.32;7.55;;;;;;;2.08;100.00;97711.44;5046293;28;24454;-76
2023/02/12 04:38:43;;;;;;;10.77;7.97;;;;;;;2.08;100.00;97711.44;5040958;28;24804;-74
2023/02/12 04:41:09;;;;;;;10.10;7.10;;;;;;;2.14;100.00;97706.34;5042690;28;24541;-75
2023/02/12 04:43:37;;;;;;;9.60;7.40;;;;;;;2.19;100.00;97708.91;5042011;28;24442;-75
2023/02/12 04:46:06;;;;;;;8.53;7.07;;;;;;;2.22;100.00;97711.44;5045422;28;24454;-76
2023/02/12 04:48:33;;;;;;;10.35;8.10;;;;;;;2.24;100.00;97711.47;5048332;28;25004;-75
2023/02/12 04:51:00;;;;;;;10.73;8.60;;;;;;;2.21;100.00;97711.47;5042054;28;24518;-75
2023/02/12 04:53:28;;;;;;;8.98;8.07;;;;;;;2.24;100.00;97716.59;5045736;28;24923;-77
2023/02/12 04:55:54;;;;;;;12.63;8.40;;;;;;;2.27;100.00;97714.03;5045514;28;24975;-75
2023/02/12 04:58:21;;;;;;;11.60;8.98;;;;;;;2.25;100.00;97713.16;5046602;28;24438;-75
2023/02/12 05:00:47;;;;;;;12.05;8.43;;;;;;;2.29;100.00;97714.88;5046377;28;25079;-75
2023/02/12 05:03:14;;;;;;;10.30;8.50;;;;;;;2.31;100.00;97714.03;5045476;28;25008;-75
2023/02/12 05:05:40;;;;;;;9.85;7.78;;;;;;;2.33;100.00;97707.19;5047079;28;24844;-75
2023/02/12 05:08:07;;;;;;;11.25;8.95;;;;;;;2.36;100.00;97714.03;5049776;28;24439;-75
2023/02/12 05:10:34;;;;;;;11.88;9.30;;;;;;;2.35;100.00;97705.50;5046797;28;24431;-76
2023/02/12 05:13:01;;;;;;;12.70;10.65;;;;;;;2.29;100.00;97710.59;5045025;28;24968;-76
2023/02/12 05:15:27;;;;;;;12.18;9.63;;;;;;;2.26;100.00;97707.19;5054587;28;25006;-75
2023/02/12 05:17:54;;;;;;;13.73;10.90;;;;;;;2.22;100.00;97705.50;5041388;28;24443;-75
2023/02/12 05:20:20;;;;;;;12.05;10.10;;;;;;;2.23;100.00;97712.34;5047311;28;24438;-75
2023/02/12 05:22:51;;;;;;;18.38;10.63;;;;;;;2.25;100.00;97713.16;5051582;28;24439;-74
2023/02/12 05:25:18;;;;;;;16.27;11.25;;;;;;;2.22;100.00;97714.00;5039188;28;24440;-74
2023/02/12 05:27:45;;;;;;;17.40;10.65;;;;;;;2.23;100.00;97712.34;5044415;28;24447;-74
2023/02/12 05:30:13;;;;;;;14.07;10.63;;;;;;;2.20;100.00;97714.88;5043288;28;24970;-74
2023/02/12 05:32:39;;;;;;;15.13;10.93;;;;;;;2.23;100.00;97714.88;5044110;28;24844;-74
2023/02/12 05:35:07;;;;;;;12.50;10.32;;;;;;;2.24;100.00;97717.44;5038807;28;25007;-75
2023/02/12 05:37:35;;;;;;;12.03;10.13;;;;;;;2.25;100.00;97718.28;5039479;28;24977;-75
2023/02/12 05:40:01;;;;;;;12.05;10.05;;;;;;;2.27;100.00;97717.44;5043696;28;24449;-75
2023/02/12 05:42:29;;;;;;;11.27;9.68;;;;;;;2.26;100.00;97713.16;5049102;28;24442;-75
2023/02/12 05:44:57;;;;;;;12.20;10.20;;;;;;;2.28;100.00;97715.72;5041905;28;24506;-74
2023/02/12 05:47:24;;;;;;;13.65;10.98;;;;;;;2.26;100.00;97719.97;5037954;28;24435;-75
2023/02/12 05:49:50;;;;;;;12.65;11.05;;;;;;;2.33;100.00;97708.91;5047845;28;24439;-75
2023/02/12 05:52:16;;;;;;;11.32;10.13;;;;;;;2.37;100.00;97716.59;5046658;28;24454;-75
2023/02/12 05:54:43;;;;;;;16.85;11.23;;;;;;;2.37;100.00;97713.16;5048621;28;24447;-75
2023/02/12 05:57:09;;;;;;;15.20;11.23;;;;;;;2.29;100.00;97709.75;5049284;28;24514;-74
2023/02/12 05:59:36;;;;;;;11.88;9.40;;;;;;;2.18;100.00;97708.03;5048326;28;24442;-74
2023/02/12 06:02:04;;;;;;;14.82;11.57;;;;;;;2.24;100.00;97721.69;5044012;28;24438;-74
2023/02/12 06:04:30;;;;;;;17.27;12.60;;;;;;;2.31;100.00;97713.19;5055139;28;24442;-74
2023/02/12 06:06:56;;;;;;;13.60;11.77;;;;;;;2.25;100.00;97705.50;5046694;28;24439;-74
2023/02/12 06:09:24;;;;;;;19.35;12.95;;;;;;;2.13;100.00;97711.44;5043177;28;24435;-74
2023/02/12 06:11:50;;;;;;;17.92;13.40;;;;;;;2.13;100.00;97714.84;5047726;28;24487;-75
2023/02/12 06:14:19;;;;;;;19.55;13.13;;;;;;;2.03;100.00;97709.72;5045509;28;24435;-75
2023/02/12 06:16:47;;;;;;;15.23;12.65;;;;;;;1.98;100.00;97708.88;5046727;28;24431;-74
2023/02/12 06:19:15;;;;;;;14.57;12.80;;;;;;;1.99;100.00;97708.00;5046050;28;24486;-75
2023/02/12 06:21:42;;;;;;;18.75;13.23;;;;;;;1.98;100.00;97708.88;5045696;28;24522;-75
2023/02/12 06:24:09;;;;;;;14.88;13.35;;;;;;;1.99;100.00;97711.41;5042118;28;24438;-75
2023/02/12 06:26:36;;;;;;;17.02;12.80;;;;;;;2.01;100.00;97709.72;5038738;28;24443;-75
2023/02/12 06:29:02;;;;;;;23.40;14.13;;;;;;;2.04;100.00;97716.53;5047458;28;24446;-74
2023/02/12 06:31:30;;;;;;;18.58;13.85;;;;;;;2.04;100.00;97706.31;5041844;28;24455;-74
2023/02/12 06:34:00;;;;;;;16.65;13.68;;;;;;;1.93;100.00;97719.09;5042763;28;24446;-74
2023/02/12 06:36:28;;;;;;;16.67;13.80;;;;;;;1.85;100.00;97708.81;5045221;28;24823;-74
2023/02/12 06:38:54;;;;;;;18.52;13.20;;;;;;;1.79;100.00;97713.09;5036280;28;24428;-74
2023/02/12 06:41:22;;;;;;;15.02;12.48;;;;;;;1.76;100.00;97719.03;5043351;28;24431;-75
2023/02/12 06:43:48;;;;;;;16.60;12.32;;;;;;;1.78;100.00;97719.91;5037217;28;24443;-74
2023/02/12 06:46:15;;;;;;;15.57;12.20;;;;;;;1.76;100.00;97724.13;5045424;28;24467;-74
2023/02/12 06:48:42;;;;;;;14.07;12.35;;;;;;;1.70;100.00;97722.41;5047141;28;25023;-75
2023/02/12 06:51:11;;;;;;;18.63;13.50;;;;;;;1.62;100.00;97724.09;5045177;28;24434;-75
2023/02/12 06:53:39;;;;;;;28.85;15.43;;;;;;;1.61;100.00;97724.94;5048082;28;24450;-75
2023/02/12 06:56:10;;;;;;;25.52;20.58;;;;;;;1.62;100.00;97731.75;5050358;28;24438;-75
2023/02/12 06:58:36;;;;;;;23.10;18.50;;;;;;;1.70;100.00;97737.72;5049990;28;24478;-74
2023/02/12 07:01:12;;;;;;;29.83;21.98;;;;;;;1.78;100.00;97731.78;5045026;28;24431;-75
2023/02/12 07:03:39;;;;;;;19.10;14.47;;;;;;;1.83;100.00;97733.53;5047359;28;24460;-74
2023/02/12 07:06:06;;;;;;;16.88;12.93;;;;;;;1.81;100.00;97737.78;5046388;28;24442;-76
2023/02/12 07:08:33;;;;;;;16.08;12.63;;;;;;;1.82;100.00;97743.75;5047147;28;24438;-75
2023/02/12 07:11:01;;;;;;;19.83;13.80;;;;;;;1.87;100.00;97740.34;5047107;28;24987;-75
2023/02/12 07:13:27;;;;;;;18.73;14.52;;;;;;;2.06;100.00;97742.97;5054278;28;24459;-75
2023/02/12 07:15:53;;;;;;;16.35;14.60;;;;;;;2.08;100.00;97739.56;5046577;28;24442;-75
2023/02/12 07:18:20;;;;;;;21.30;15.45;;;;;;;2.01;100.00;97742.97;5043420;28;24447;-75
2023/02/12 07:20:46;;;;;;;18.63;15.48;;;;;;;2.05;100.00;97746.38;5056556;28;24437;-75
2023/02/12 07:23:13;;;;;;;18.88;16.33;;;;;;;2.11;100.00;97746.38;5047687;28;24442;-75
2023/02/12 07:25:40;;;;;;;19.63;15.45;;;;;;;2.04;100.00;97737.84;5048588;28;24519;-75
2023/02/12 07:28:07;;;;;;;21.10;16.38;;;;;;;2.13;100.00;97744.69;5052550;28;24443;-75
2023/02/12 07:30:34;;;;;;;20.52;14.95;;;;;;;2.23;100.00;97748.97;5043748;28;24444;-75
2023/02/12 07:33:00;;;;;;;26.13;14.43;;;;;;;2.18;100.00;97740.41;5044086;28;24455;-75
2023/02/12 07:35:27;;;;;;;20.35;15.52;;;;;;;2.11;100.00;97744.69;5044921;28;24464;-75
2023/02/12 07:37:53;;;;;;;22.73;18.17;;;;;;;2.22;100.00;97744.69;5050346;28;24446;-75
2023/02/12 07:40:20;;;;;;;23.73;18.92;;;;;;;2.22;100.00;97743.84;5049563;28;24442;-75
2023/02/12 07:42:52;;;;;;;37.40;22.35;;;;;;;2.38;100.00;97743.88;5050925;28;24474;-75
2023/02/12 07:45:20;;;;;;;33.97;23.52;;;;;;;2.38;100.00;97748.13;5045666;28;25059;-75
2023/02/12 07:47:46;;;;;;;32.25;23.10;;;;;;;2.28;100.00;97743.84;5044658;28;24840;-75
2023/02/12 07:50:13;;;;;;;31.83;22.60;;;;;;;2.27;100.00;97747.28;5049167;28;24431;-75
2023/02/12 07:52:39;;;;;;;30.45;23.13;;;;;;;2.32;100.00;97741.28;5048040;28;24451;-74
2023/02/12 07:55:07;;;;;;;36.38;24.52;;;;;;;2.40;100.00;97742.16;5048728;28;24430;-75
2023/02/12 07:57:34;;;;;;;36.53;24.57;;;;;;;2.57;100.00;97737.06;5049921;28;24528;-74
2023/02/12 08:00:01;;;;;;;36.97;25.77;;;;;;;2.54;100.00;97742.16;5048499;28;24442;-75
2023/02/12 08:02:28;;;;;;;41.23;25.77;;;;;;;2.54;100.00;97738.75;5048635;28;24445;-75
2023/02/12 08:04:56;;;;;;;33.42;23.40;;;;;;;2.44;100.00;97737.91;5047133;28;24977;-75
2023/02/12 08:07:22;;;;;;;30.77;22.58;;;;;;;2.43;100.00;97737.03;5049511;28;24436;-74
2023/02/12 08:09:49;;;;;;;38.00;23.20;;;;;;;2.49;100.00;97743.88;5049832;28;24438;-74
2023/02/12 08:12:16;;;;;;;29.50;22.47;;;;;;;2.56;100.00;97732.81;5046137;28;24981;-74
2023/02/12 08:14:43;;;;;;;34.08;23.27;;;;;;;2.59;100.00;97729.38;5053517;28;24994;-75
2023/02/12 08:17:09;;;;;;;37.10;23.25;;;;;;;2.63;100.00;97725.97;5047526;28;24461;-74
2023/02/12 08:19:37;;;;;;;33.63;25.40;;;;;;;2.64;100.00;97727.69;5048324;28;24669;-75
2023/02/12 08:22:05;;;;;;;31.27;23.95;;;;;;;2.72;100.00;97720.00;5045007;28;24984;-75
2023/02/12 08:24:32;;;;;;;38.00;25.50;;;;;;;2.96;100.00;97719.13;5049054;28;24852;-74
2023/02/12 08:26:59;;;;;;;41.03;28.60;;;;;;;3.18;100.00;97725.06;5052712;28;24440;-75
2023/02/12 08:29:27;;;;;;;46.05;30.33;;;;;;;3.08;100.00;97719.13;5046279;28;24443;-75
2023/02/12 08:31:56;;;;;;;41.33;28.05;;;;;;;3.08;100.00;97721.69;5046612;28;24447;-75
2023/02/12 08:34:24;;;;;;;39.22;27.65;;;;;;;3.14;100.00;97717.38;5046430;28;24447;-74
2023/02/12 08:36:54;;;;;;;35.60;27.98;;;;;;;3.16;100.00;97719.94;5046626;28;24987;-76
2023/02/12 08:39:21;;;;;;;47.25;29.63;;;;;;;3.24;100.00;97723.34;5043613;28;24443;-75
2023/02/12 08:41:47;;;;;;;41.55;32.03;;;;;;;3.55;100.00;97725.78;5050526;28;24443;-74
2023/02/12 08:44:15;;;;;;;50.30;32.58;;;;;;;3.45;100.00;97719.00;5050932;28;24442;-74
2023/02/12 08:46:45;;;;;;;37.97;29.73;;;;;;;3.46;100.00;97730.97;5044206;28;24769;-74
2023/02/12 08:49:14;;;;;;;47.72;32.92;;;;;;;3.55;100.00;97728.34;5053502;28;24440;-74
2023/02/12 08:51:42;;;;;;;42.22;30.20;;;;;;;3.54;100.00;97732.63;5048347;28;24447;-74
2023/02/12 08:54:12;;;;;;;38.60;28.77;;;;;;;3.52;100.00;97729.22;5048573;28;25003;-74
2023/02/12 08:56:40;;;;;;;37.37;30.23;;;;;;;3.61;100.00;97730.91;5049408;28;24524;-75
2023/02/12 08:59:08;;;;;;;41.03;30.70;;;;;;;3.92;100.00;97744.41;5048437;28;24442;-73
2023/02/12 09:01:37;;;;;;;43.63;31.75;;;;;;;4.32;100.00;97739.06;5048115;28;24474;-74
2023/02/12 09:04:04;;;;;;;44.30;32.20;;;;;;;4.18;100.00;97736.59;5047430;28;24437;-75
2023/02/12 09:06:33;;;;;;;42.53;30.30;;;;;;;3.99;100.00;97742.69;5049911;28;24454;-74
2023/02/12 09:09:00;;;;;;;42.22;31.13;;;;;;;4.04;100.00;97740.94;5049575;28;24443;-74
2023/02/12 09:11:30;;;;;;;42.77;30.67;;;;;;;4.09;100.00;97745.19;5049383;28;24532;-74
2023/02/12 09:13:58;;;;;;;32.72;27.80;;;;;;;4.50;100.00;97753.50;5048440;28;24482;-74
2023/02/12 09:16:25;;;;;;;34.00;25.77;;;;;;;4.69;100.00;97746.50;5049457;28;24539;-74
2023/02/12 09:18:51;;;;;;;25.23;22.60;;;;;;;4.68;100.00;97745.66;5039330;28;24438;-74
2023/02/12 09:21:18;;;;;;;27.40;21.50;;;;;;;4.80;100.00;97753.25;5046222;28;24439;-74
2023/02/12 09:23:45;;;;;;;26.35;20.77;;;;;;;4.85;100.00;97746.34;5053454;28;24473;-74
2023/02/12 09:26:14;;;;;;;24.35;21.70;;;;;;;4.83;100.00;97747.25;5045966;28;24825;-74
2023/02/12 09:28:42;;;;;;;25.70;20.40;;;;;;;4.94;100.00;97745.44;5048507;28;24508;-74
2023/02/12 09:31:11;;;;;;;24.75;18.27;;;;;;;4.90;100.00;97745.50;5046310;28;24439;-74
2023/02/12 09:33:38;;;;;;;22.57;17.17;;;;;;;4.84;100.00;97754.06;5046843;28;24520;-74
2023/02/12 09:36:07;;;;;;;16.45;13.82;;;;;;;4.87;100.00;97755.78;5047614;28;24431;-74
2023/02/12 09:38:34;;;;;;;11.68;9.70;;;;;;;4.82;100.00;97758.34;5045197;28;24434;-74
2023/02/12 09:41:28;;;;;;;16.00;12.75;;;;;;;4.75;100.00;97759.31;5045419;28;24441;-74
2023/02/12 09:44:02;;;;;;;17.27;10.50;;;;;;;4.79;100.00;97763.53;5045504;28;24434;-74
2023/02/12 09:46:31;;;;;;;16.23;11.90;;;;;;;4.89;100.00;97761.72;5046016;28;24523;-74
2023/02/12 09:49:07;;;;;;;13.45;12.02;;;;;;;4.82;100.00;97760.91;5048489;28;24441;-74
2023/02/12 09:51:35;;;;;;;12.35;9.82;;;;;;;4.74;100.00;97757.56;5046566;28;24494;-74
2023/02/12 09:54:05;;;;;;;11.70;10.38;;;;;;;4.86;100.00;97762.63;5046557;28;24908;-74
2023/02/12 09:56:34;;;;;;;17.65;10.65;;;;;;;4.94;100.00;97763.41;5043572;28;24435;-74
2023/02/12 09:59:06;;;;;;;22.38;12.68;;;;;;;4.95;100.00;97765.09;5049012;28;24438;-74
2023/02/12 10:01:33;;;;;;;16.50;14.25;;;;;;;4.89;100.00;97756.59;5044158;28;24439;-74
2023/02/12 10:04:00;;;;;;;17.42;12.27;;;;;;;4.95;100.00;97754.84;5046838;28;24435;-74
2023/02/12 10:06:29;;;;;;;12.43;10.38;;;;;;;4.93;100.00;97760.84;5048099;28;24447;-74
2023/02/12 10:09:06;;;;;;;13.15;10.73;;;;;;;4.97;100.00;97749.66;5047763;28;24443;-74
2023/02/12 10:11:51;;;;;;;14.85;11.25;;;;;;;5.08;100.00;97756.44;5045866;28;24558;-74
2023/02/12 10:14:50;;;;;;;15.85;13.50;;;;;;;5.09;100.00;97747.00;5046113;28;24463;-74
2023/02/12 10:17:25;;;;;;;18.00;13.90;;;;;;;4.99;100.00;97753.09;5043896;28;24468;-73
2023/02/12 10:20:16;;;;;;;20.67;14.73;;;;;;;4.97;100.00;97750.56;5048568;28;24446;-74
2023/02/12 10:22:49;;;;;;;16.33;14.63;;;;;;;5.24;100.00;97746.00;5043654;28;24498;-74
2023/02/12 10:25:25;;;;;;;17.83;15.93;;;;;;;5.26;100.00;97747.69;5045552;28;24435;-73
2023/02/12 10:27:55;;;;;;;21.50;19.02;;;;;;;5.29;100.00;97751.94;5045662;28;24447;-74
2023/02/12 10:30:27;;;;;;;28.13;19.45;;;;;;;5.42;100.00;97756.09;5048428;28;24446;-74
2023/02/12 10:33:00;;;;;;;25.20;18.90;;;;;;;5.38;100.00;97745.84;5047482;28;24455;-73
2023/02/12 10:35:27;;;;;;;24.38;18.90;;;;;;;5.41;100.00;97740.69;5043876;28;24440;-73
2023/02/12 10:38:00;;;;;;;17.80;15.88;;;;;;;5.36;100.00;97745.88;5040764;28;24447;-73
2023/02/12 10:40:31;;;;;;;18.90;16.90;;;;;;;5.43;100.00;97742.38;5047303;28;24980;-73
2023/02/12 10:42:59;;;;;;;18.27;14.68;;;;;;;5.45;100.00;97740.66;5046734;28;24438;-73
2023/02/12 10:45:30;;;;;;;15.30;12.65;;;;;;;5.37;100.00;97742.44;5047021;28;24820;-74
2023/02/12 10:48:06;;;;;;;12.93;11.52;;;;;;;5.51;100.00;97740.56;5047620;28;24451;-74
2023/02/12 10:50:44;;;;;;;12.35;10.63;;;;;;;5.63;100.00;97742.13;5045900;28;24532;-74
2023/02/12 10:53:17;;;;;;;12.60;11.30;;;;;;;5.57;100.00;97744.81;5049722;28;24498;-73
2023/02/12 10:55:44;;;;;;;16.13;12.65;;;;;;;5.77;100.00;97737.69;5052227;28;24439;-74
2023/02/12 10:58:20;;;;;;;13.47;11.67;;;;;;;5.67;100.00;97737.81;5051289;28;24450;-74
2023/02/12 11:00:56;;;;;;;12.90;11.60;;;;;;;5.85;100.00;97732.44;5050307;28;25087;-74
2023/02/12 11:03:27;;;;;;;14.05;12.55;;;;;;;5.85;100.00;97740.16;5049838;28;24976;-74
2023/02/12 11:05:54;;;;;;;12.68;10.27;;;;;;;5.97;100.00;97731.47;5049601;28;24837;-74
2023/02/12 11:08:30;;;;;;;16.98;9.73;;;;;;;5.87;100.00;97733.28;5049425;28;24447;-73
2023/02/12 11:11:03;;;;;;;11.80;10.43;;;;;;;5.80;100.00;97731.66;5049092;28;24808;-73
2023/02/12 11:13:30;;;;;;;11.27;9.63;;;;;;;5.88;100.00;97729.84;5047691;28;24531;-73
2023/02/12 11:15:59;;;;;;;10.88;9.73;;;;;;;5.89;100.00;97725.53;5051000;28;24438;-73
2023/02/12 11:18:30;;;;;;;13.25;9.35;;;;;;;6.04;100.00;97715.09;5051623;28;24439;-74
2023/02/12 11:21:00;;;;;;;10.85;8.38;;;;;;;6.00;100.00;97719.41;5049275;28;24972;-74
2023/02/12 11:23:28;;;;;;;10.45;8.15;;;;;;;6.10;100.00;97712.44;5051248;28;24435;-74
2023/02/12 11:25:58;;;;;;;9.45;7.93;;;;;;;6.03;100.00;97719.38;5050415;28;24469;-74
2023/02/12 11:28:25;;;;;;;8.15;7.32;;;;;;;6.13;100.00;97714.97;5049314;28;24446;-74
2023/02/12 11:30:54;;;;;;;10.40;7.00;;;;;;;6.38;100.00;97707.75;5051025;28;24439;-74
2023/02/12 11:33:26;;;;;;;7.97;7.18;;;;;;;6.23;100.00;97708.84;5046798;28;24448;-76
2023/02/12 11:35:55;;;;;;;7.57;6.65;;;;;;;6.21;100.00;97713.13;5047399;28;24431;-74